sensor_id;sensor_type;location;lat;lon;timestamp;pressure;altitude;pressure_sealevel;temperature;humidity
45078;BME280;60508;42.622;25.416;2023-03-18T00:00:22;97244.31;;;5.21;52.58
45078;BME280;60508;42.622;25.416;2023-03-18T00:02:49;97243.03;;;5.10;52.67
45078;BME280;60508;42.622;25.416;2023-03-18T00:05:15;97248.97;;;5.06;52.95
45078;BME280;60508;42.622;25.416;2023-03-18T00:07:41;97252.19;;;5.01;53.64
45078;BME280;60508;42.622;25.416;2023-03-18T00:10:09;97233.56;;;5.01;53.58
45078;BME280;60508;42.622;25.416;2023-03-18T00:12:39;97233.06;;;5.26;52.56
45078;BME280;60508;42.622;25.416;2023-03-18T00:15:07;97230.38;;;5.26;51.79
45078;BME280;60508;42.622;25.416;2023-03-18T00:17:33;97230.78;;;5.23;51.79
45078;BME280;60508;42.622;25.416;2023-03-18T00:20:00;97227.91;;;5.18;52.34
45078;BME280;60508;42.622;25.416;2023-03-18T00:22:34;97225.50;;;4.88;53.21
45078;BME280;60508;42.622;25.416;2023-03-18T00:25:02;97230.47;;;4.98;53.14
45078;BME280;60508;42.622;25.416;2023-03-18T00:27:29;97217.56;;;4.94;53.38
45078;BME280;60508;42.622;25.416;2023-03-18T00:29:56;97208.09;;;4.92;53.14
45078;BME280;60508;42.622;25.416;2023-03-18T00:32:25;97210.06;;;4.77;53.68
45078;BME280;60508;42.622;25.416;2023-03-18T00:34:54;97213.13;;;4.73;54.21
45078;BME280;60508;42.622;25.416;2023-03-18T00:37:22;97210.28;;;4.75;54.25
45078;BME280;60508;42.622;25.416;2023-03-18T00:40:01;97208.47;;;4.82;53.86
45078;BME280;60508;42.622;25.416;2023-03-18T00:42:37;97195.16;;;4.82;53.58
45078;BME280;60508;42.622;25.416;2023-03-18T00:45:06;97186.81;;;4.57;54.30
45078;BME280;60508;42.622;25.416;2023-03-18T00:47:33;97206.88;;;4.60;54.76
45078;BME280;60508;42.622;25.416;2023-03-18T00:49:59;97201.72;;;4.51;55.22
45078;BME280;60508;42.622;25.416;2023-03-18T00:52:26;97203.91;;;4.41;55.53
45078;BME280;60508;42.622;25.416;2023-03-18T00:54:52;97194.03;;;4.35;55.67
45078;BME280;60508;42.622;25.416;2023-03-18T00:57:19;97190.25;;;4.51;55.54
45078;BME280;60508;42.622;25.416;2023-03-18T00:59:45;97189.25;;;4.58;55.68
45078;BME280;60508;42.622;25.416;2023-03-18T01:02:13;97193.72;;;4.51;55.78
45078;BME280;60508;42.622;25.416;2023-03-18T01:04:39;97190.06;;;4.52;55.93
45078;BME280;60508;42.622;25.416;2023-03-18T01:07:05;97188.84;;;4.55;55.56
45078;BME280;60508;42.622;25.416;2023-03-18T01:09:32;97187.13;;;4.75;55.00
45078;BME280;60508;42.622;25.416;2023-03-18T01:11:59;97185.81;;;5.00;53.83
45078;BME280;60508;42.622;25.416;2023-03-18T01:14:25;97192.06;;;4.79;54.29
45078;BME280;60508;42.622;25.416;2023-03-18T01:16:51;97184.31;;;4.84;54.59
45078;BME280;60508;42.622;25.416;2023-03-18T01:19:18;97184.75;;;4.94;53.89
45078;BME280;60508;42.622;25.416;2023-03-18T01:21:44;97185.41;;;4.96;53.85
45078;BME280;60508;42.622;25.416;2023-03-18T01:24:11;97182.41;;;4.78;54.47
45078;BME280;60508;42.622;25.416;2023-03-18T01:26:37;97170.91;;;4.64;54.99
45078;BME280;60508;42.622;25.416;2023-03-18T01:29:03;97178.69;;;4.65;55.21
45078;BME280;60508;42.622;25.416;2023-03-18T01:31:31;97180.09;;;4.61;55.26
45078;BME280;60508;42.622;25.416;2023-03-18T01:34:03;97185.31;;;4.48;55.42
45078;BME280;60508;42.622;25.416;2023-03-18T01:36:40;97178.97;;;4.49;55.71
45078;BME280;60508;42.622;25.416;2023-03-18T01:39:08;97180.13;;;4.68;55.10
45078;BME280;60508;42.622;25.416;2023-03-18T01:41:36;97180.88;;;4.62;55.16
45078;BME280;60508;42.622;25.416;2023-03-18T01:44:05;97182.69;;;4.54;55.43
45078;BME280;60508;42.622;25.416;2023-03-18T01:46:37;97181.72;;;4.62;55.29
45078;BME280;60508;42.622;25.416;2023-03-18T01:49:09;97183.56;;;4.62;55.32
45078;BME280;60508;42.622;25.416;2023-03-18T01:51:39;97181.88;;;4.54;55.13
45078;BME280;60508;42.622;25.416;2023-03-18T01:54:06;97180.63;;;4.50;55.38
45078;BME280;60508;42.622;25.416;2023-03-18T01:56:34;97181.88;;;4.54;54.74
45078;BME280;60508;42.622;25.416;2023-03-18T01:59:02;97170.94;;;4.42;55.03
45078;BME280;60508;42.622;25.416;2023-03-18T02:01:42;97176.72;;;4.46;54.68
45078;BME280;60508;42.622;25.416;2023-03-18T02:04:10;97175.31;;;4.50;54.66
45078;BME280;60508;42.622;25.416;2023-03-18T02:06:40;97169.19;;;4.56;54.71
45078;BME280;60508;42.622;25.416;2023-03-18T02:09:07;97170.44;;;4.60;54.22
45078;BME280;60508;42.622;25.416;2023-03-18T02:11:39;97167.16;;;4.58;54.38
45078;BME280;60508;42.622;25.416;2023-03-18T02:14:10;97159.84;;;4.67;53.91
45078;BME280;60508;42.622;25.416;2023-03-18T02:16:43;97159.78;;;4.60;54.59
45078;BME280;60508;42.622;25.416;2023-03-18T02:22:16;97166.31;;;4.23;56.08
45078;BME280;60508;42.622;25.416;2023-03-18T02:27:44;97167.22;;;4.08;57.03
45078;BME280;60508;42.622;25.416;2023-03-18T02:30:17;97168.94;;;4.44;55.88
45078;BME280;60508;42.622;25.416;2023-03-18T02:32:47;97167.91;;;4.45;55.31
45078;BME280;60508;42.622;25.416;2023-03-18T02:35:14;97169.72;;;4.38;55.67
45078;BME280;60508;42.622;25.416;2023-03-18T02:37:40;97169.72;;;4.38;55.26
45078;BME280;60508;42.622;25.416;2023-03-18T02:40:28;97166.31;;;4.23;54.66
45078;BME280;60508;42.622;25.416;2023-03-18T02:42:56;97168.59;;;4.26;54.70
45078;BME280;60508;42.622;25.416;2023-03-18T02:48:15;97180.91;;;4.05;55.38
45078;BME280;60508;42.622;25.416;2023-03-18T02:50:43;97172.25;;;3.96;56.29
45078;BME280;60508;42.622;25.416;2023-03-18T02:53:11;97181.47;;;4.22;56.37
45078;BME280;60508;42.622;25.416;2023-03-18T02:55:38;97178.94;;;4.42;54.16
45078;BME280;60508;42.622;25.416;2023-03-18T02:58:05;97175.72;;;4.18;54.85
45078;BME280;60508;42.622;25.416;2023-03-18T03:00:32;97172.16;;;4.11;55.98
45078;BME280;60508;42.622;25.416;2023-03-18T03:02:58;97178.09;;;4.13;55.71
45078;BME280;60508;42.622;25.416;2023-03-18T03:05:25;97170.63;;;4.24;55.45
45078;BME280;60508;42.622;25.416;2023-03-18T03:07:52;97173.13;;;4.32;55.22
45078;BME280;60508;42.622;25.416;2023-03-18T03:10:18;97172.41;;;4.16;55.50
45078;BME280;60508;42.622;25.416;2023-03-18T03:12:45;97171.97;;;4.13;55.70
45078;BME280;60508;42.622;25.416;2023-03-18T03:15:16;97165.94;;;4.26;55.49
45078;BME280;60508;42.622;25.416;2023-03-18T03:17:46;97185.03;;;4.36;55.39
45078;BME280;60508;42.622;25.416;2023-03-18T03:20:16;97177.69;;;4.38;55.91
45078;BME280;60508;42.622;25.416;2023-03-18T03:22:42;97171.13;;;4.41;55.29
45078;BME280;60508;42.622;25.416;2023-03-18T03:25:10;97168.47;;;4.41;55.13
45078;BME280;60508;42.622;25.416;2023-03-18T03:27:36;97180.97;;;4.68;53.58
45078;BME280;60508;42.622;25.416;2023-03-18T03:30:09;97178.69;;;4.65;53.76
45078;BME280;60508;42.622;25.416;2023-03-18T03:32:36;97176.59;;;4.61;54.58
45078;BME280;60508;42.622;25.416;2023-03-18T03:35:02;97168.75;;;4.46;54.69
45078;BME280;60508;42.622;25.416;2023-03-18T03:37:30;97170.28;;;4.33;55.41
45078;BME280;60508;42.622;25.416;2023-03-18T03:39:56;97163.13;;;4.34;55.17
45078;BME280;60508;42.622;25.416;2023-03-18T03:42:22;97167.72;;;4.18;55.82
45078;BME280;60508;42.622;25.416;2023-03-18T03:44:49;97178.78;;;4.22;55.55
45078;BME280;60508;42.622;25.416;2023-03-18T03:47:16;97171.44;;;4.24;55.24
45078;BME280;60508;42.622;25.416;2023-03-18T03:49:42;97180.38;;;4.16;54.85
45078;BME280;60508;42.622;25.416;2023-03-18T03:52:09;97179.97;;;3.91;55.50
45078;BME280;60508;42.622;25.416;2023-03-18T03:54:37;97183.97;;;3.80;55.89
45078;BME280;60508;42.622;25.416;2023-03-18T03:57:06;97180.22;;;3.96;55.60
45078;BME280;60508;42.622;25.416;2023-03-18T03:59:33;97179.41;;;3.74;56.07
45078;BME280;60508;42.622;25.416;2023-03-18T04:02:18;97178.38;;;3.97;55.40
45078;BME280;60508;42.622;25.416;2023-03-18T04:04:45;97183.56;;;4.05;54.69
45078;BME280;60508;42.622;25.416;2023-03-18T04:07:21;97172.16;;;4.11;54.44
45078;BME280;60508;42.622;25.416;2023-03-18T04:09:48;97164.28;;;3.96;55.06
45078;BME280;60508;42.622;25.416;2023-03-18T04:12:14;97168.78;;;3.74;55.21
45078;BME280;60508;42.622;25.416;2023-03-18T04:14:48;97172.69;;;3.57;55.83
45078;BME280;60508;42.622;25.416;2023-03-18T04:17:15;97176.38;;;3.19;57.20
45078;BME280;60508;42.622;25.416;2023-03-18T04:19:41;97186.06;;;3.27;57.32
45078;BME280;60508;42.622;25.416;2023-03-18T04:22:07;97174.09;;;3.53;55.74
45078;BME280;60508;42.622;25.416;2023-03-18T04:24:34;97175.03;;;3.45;55.51
45078;BME280;60508;42.622;25.416;2023-03-18T04:27:01;97159.59;;;3.34;55.52
45078;BME280;60508;42.622;25.416;2023-03-18T04:29:27;97163.16;;;3.26;55.16
45078;BME280;60508;42.622;25.416;2023-03-18T04:31:54;97173.31;;;3.37;54.24
45078;BME280;60508;42.622;25.416;2023-03-18T04:34:22;97178.97;;;3.49;53.02
45078;BME280;60508;42.622;25.416;2023-03-18T04:36:50;97176.56;;;3.54;52.89
45078;BME280;60508;42.622;25.416;2023-03-18T04:39:16;97173.78;;;3.41;53.44
45078;BME280;60508;42.622;25.416;2023-03-18T04:41:42;97177.28;;;3.26;53.89
45078;BME280;60508;42.622;25.416;2023-03-18T04:44:09;97176.25;;;3.42;53.55
45078;BME280;60508;42.622;25.416;2023-03-18T04:46:46;97177.88;;;3.43;53.47
45078;BME280;60508;42.622;25.416;2023-03-18T04:49:13;97172.38;;;3.66;53.04
45078;BME280;60508;42.622;25.416;2023-03-18T04:51:39;97178.00;;;3.57;53.14
45078;BME280;60508;42.622;25.416;2023-03-18T04:54:13;97174.72;;;3.55;53.37
45078;BME280;60508;42.622;25.416;2023-03-18T04:56:40;97181.50;;;3.57;53.29
45078;BME280;60508;42.622;25.416;2023-03-18T04:59:06;97179.22;;;3.54;52.99
45078;BME280;60508;42.622;25.416;2023-03-18T05:01:32;97169.03;;;3.36;52.32
45078;BME280;60508;42.622;25.416;2023-03-18T05:03:59;97177.69;;;3.45;52.47
45078;BME280;60508;42.622;25.416;2023-03-18T05:06:33;97181.50;;;3.21;52.81
45078;BME280;60508;42.622;25.416;2023-03-18T05:09:07;97181.75;;;3.26;53.11
45078;BME280;60508;42.622;25.416;2023-03-18T05:11:35;97184.88;;;3.29;52.83
45078;BME280;60508;42.622;25.416;2023-03-18T05:14:11;97175.06;;;3.30;52.71
45078;BME280;60508;42.622;25.416;2023-03-18T05:16:45;97190.97;;;3.45;52.10
45078;BME280;60508;42.622;25.416;2023-03-18T05:19:11;97171.81;;;3.50;51.65
45078;BME280;60508;42.622;25.416;2023-03-18T05:21:44;97172.38;;;3.66;50.83
45078;BME280;60508;42.622;25.416;2023-03-18T05:24:11;97186.19;;;3.77;50.70
45078;BME280;60508;42.622;25.416;2023-03-18T05:26:40;97184.03;;;3.87;50.97
45078;BME280;60508;42.622;25.416;2023-03-18T05:29:07;97177.56;;;3.96;50.69
45078;BME280;60508;42.622;25.416;2023-03-18T05:31:47;97167.41;;;4.07;50.99
45078;BME280;60508;42.622;25.416;2023-03-18T05:34:20;97167.28;;;4.15;51.45
45078;BME280;60508;42.622;25.416;2023-03-18T05:36:47;97182.28;;;4.23;51.41
45078;BME280;60508;42.622;25.416;2023-03-18T05:39:13;97176.81;;;4.31;51.88
45078;BME280;60508;42.622;25.416;2023-03-18T05:41:40;97138.63;;;4.10;51.83
45078;BME280;60508;42.622;25.416;2023-03-18T05:44:08;97177.72;;;4.45;50.94
45078;BME280;60508;42.622;25.416;2023-03-18T05:46:37;97184.34;;;4.55;51.11
45078;BME280;60508;42.622;25.416;2023-03-18T05:49:15;97181.09;;;4.60;50.88
45078;BME280;60508;42.622;25.416;2023-03-18T05:52:02;97178.31;;;4.75;50.41
45078;BME280;60508;42.622;25.416;2023-03-18T05:54:37;97174.53;;;4.91;49.31
45078;BME280;60508;42.622;25.416;2023-03-18T05:57:05;97184.00;;;5.07;48.84
45078;BME280;60508;42.622;25.416;2023-03-18T05:59:32;97182.41;;;5.12;48.08
45078;BME280;60508;42.622;25.416;2023-03-18T06:01:59;97169.44;;;5.03;47.78
45078;BME280;60508;42.622;25.416;2023-03-18T06:04:26;97179.94;;;5.11;47.59
45078;BME280;60508;42.622;25.416;2023-03-18T06:06:52;97179.53;;;5.14;47.66
45078;BME280;60508;42.622;25.416;2023-03-18T06:09:19;97172.56;;;5.20;47.04
45078;BME280;60508;42.622;25.416;2023-03-18T06:11:46;97177.31;;;5.31;46.42
45078;BME280;60508;42.622;25.416;2023-03-18T06:14:12;97190.06;;;5.42;46.45
45078;BME280;60508;42.622;25.416;2023-03-18T06:16:39;97186.63;;;5.55;46.65
45078;BME280;60508;42.622;25.416;2023-03-18T06:19:06;97179.88;;;5.66;46.52
45078;BME280;60508;42.622;25.416;2023-03-18T06:21:35;97174.97;;;5.76;46.96
45078;BME280;60508;42.622;25.416;2023-03-18T06:24:02;97179.13;;;5.99;46.57
45078;BME280;60508;42.622;25.416;2023-03-18T06:26:30;97179.56;;;6.09;46.19
45078;BME280;60508;42.622;25.416;2023-03-18T06:28:56;97177.69;;;6.23;44.93
45078;BME280;60508;42.622;25.416;2023-03-18T06:31:24;97178.31;;;6.38;44.35
45078;BME280;60508;42.622;25.416;2023-03-18T06:33:51;97183.00;;;6.63;44.26
45078;BME280;60508;42.622;25.416;2023-03-18T06:36:17;97181.72;;;6.86;44.09
45078;BME280;60508;42.622;25.416;2023-03-18T06:38:47;97182.06;;;7.09;43.44
45078;BME280;60508;42.622;25.416;2023-03-18T06:41:13;97186.97;;;7.19;43.22
45078;BME280;60508;42.622;25.416;2023-03-18T06:43:50;97187.34;;;7.23;43.18
45078;BME280;60508;42.622;25.416;2023-03-18T06:46:17;97192.47;;;7.31;42.76
45078;BME280;60508;42.622;25.416;2023-03-18T06:48:44;97190.63;;;7.31;42.44
45078;BME280;60508;42.622;25.416;2023-03-18T06:51:12;97190.59;;;7.38;42.21
45078;BME280;60508;42.622;25.416;2023-03-18T06:53:41;97192.00;;;7.41;41.46
45078;BME280;60508;42.622;25.416;2023-03-18T06:56:07;97198.16;;;7.48;42.05
45078;BME280;60508;42.622;25.416;2023-03-18T06:58:47;97188.31;;;7.42;41.78
45078;BME280;60508;42.622;25.416;2023-03-18T07:01:13;97196.53;;;7.40;41.87
45078;BME280;60508;42.622;25.416;2023-03-18T07:03:42;97205.81;;;7.31;41.33
45078;BME280;60508;42.622;25.416;2023-03-18T07:06:11;97205.22;;;7.29;41.41
45078;BME280;60508;42.622;25.416;2023-03-18T07:08:38;97211.81;;;7.26;41.84
45078;BME280;60508;42.622;25.416;2023-03-18T07:11:04;97207.91;;;7.29;41.53
45078;BME280;60508;42.622;25.416;2023-03-18T07:13:33;97211.81;;;7.26;41.90
45078;BME280;60508;42.622;25.416;2023-03-18T07:16:02;97217.34;;;7.31;41.29
45078;BME280;60508;42.622;25.416;2023-03-18T07:18:29;97209.75;;;7.22;41.21
45078;BME280;60508;42.622;25.416;2023-03-18T07:20:55;97232.59;;;7.18;41.39
45078;BME280;60508;42.622;25.416;2023-03-18T07:23:22;97234.47;;;7.17;41.16
45078;BME280;60508;42.622;25.416;2023-03-18T07:25:48;97227.63;;;7.28;40.81
45078;BME280;60508;42.622;25.416;2023-03-18T07:28:15;97231.13;;;7.35;38.91
45078;BME280;60508;42.622;25.416;2023-03-18T07:30:41;97227.81;;;7.40;38.66
45078;BME280;60508;42.622;25.416;2023-03-18T07:33:07;97211.38;;;7.29;36.57
45078;BME280;60508;42.622;25.416;2023-03-18T07:35:34;97223.50;;;7.32;36.61
45078;BME280;60508;42.622;25.416;2023-03-18T07:37:59;97228.47;;;7.22;36.28
45078;BME280;60508;42.622;25.416;2023-03-18T07:40:25;97226.59;;;7.29;35.82
45078;BME280;60508;42.622;25.416;2023-03-18T07:42:52;97222.50;;;7.20;36.13
45078;BME280;60508;42.622;25.416;2023-03-18T07:45:18;97231.34;;;7.27;37.10
45078;BME280;60508;42.622;25.416;2023-03-18T07:47:45;97229.03;;;7.37;35.25
45078;BME280;60508;42.622;25.416;2023-03-18T07:50:11;97224.47;;;7.51;34.98
45078;BME280;60508;42.622;25.416;2023-03-18T07:52:38;97226.72;;;7.47;35.07
45078;BME280;60508;42.622;25.416;2023-03-18T07:55:04;97230.03;;;7.49;35.27
45078;BME280;60508;42.622;25.416;2023-03-18T07:57:31;97231.66;;;7.50;34.24
45078;BME280;60508;42.622;25.416;2023-03-18T07:59:56;97237.41;;;7.54;35.11
45078;BME280;60508;42.622;25.416;2023-03-18T08:02:22;97238.69;;;7.45;34.58
45078;BME280;60508;42.622;25.416;2023-03-18T08:04:49;97235.75;;;7.53;34.68
45078;BME280;60508;42.622;25.416;2023-03-18T08:07:16;97240.31;;;7.53;34.80
45078;BME280;60508;42.622;25.416;2023-03-18T08:09:43;97225.88;;;7.54;34.14
45078;BME280;60508;42.622;25.416;2023-03-18T08:12:09;97228.72;;;7.59;33.78
45078;BME280;60508;42.622;25.416;2023-03-18T08:14:36;97242.81;;;7.41;33.63
45078;BME280;60508;42.622;25.416;2023-03-18T08:17:02;97243.84;;;7.33;33.40
45078;BME280;60508;42.622;25.416;2023-03-18T08:19:28;97240.78;;;7.29;33.37
45078;BME280;60508;42.622;25.416;2023-03-18T08:21:55;97238.13;;;7.23;33.28
45078;BME280;60508;42.622;25.416;2023-03-18T08:24:22;97247.63;;;7.19;33.31
45078;BME280;60508;42.622;25.416;2023-03-18T08:26:49;97236.31;;;7.17;33.29
45078;BME280;60508;42.622;25.416;2023-03-18T08:29:15;97228.31;;;7.10;32.56
45078;BME280;60508;42.622;25.416;2023-03-18T08:31:41;97256.66;;;7.18;32.93
45078;BME280;60508;42.622;25.416;2023-03-18T08:34:07;97256.47;;;6.99;33.46
45078;BME280;60508;42.622;25.416;2023-03-18T08:36:34;97253.38;;;7.16;33.32
45078;BME280;60508;42.622;25.416;2023-03-18T08:39:00;97259.13;;;7.19;32.84
45078;BME280;60508;42.622;25.416;2023-03-18T08:41:26;97258.50;;;7.24;32.98
45078;BME280;60508;42.622;25.416;2023-03-18T08:43:54;97259.69;;;7.41;32.55
45078;BME280;60508;42.622;25.416;2023-03-18T08:46:22;97250.66;;;7.29;31.91
45078;BME280;60508;42.622;25.416;2023-03-18T08:48:48;97255.56;;;7.39;32.55
45078;BME280;60508;42.622;25.416;2023-03-18T08:51:15;97269.94;;;7.44;32.50
45078;BME280;60508;42.622;25.416;2023-03-18T08:53:41;97268.41;;;7.62;32.23
45078;BME280;60508;42.622;25.416;2023-03-18T08:56:08;97268.03;;;7.58;32.16
45078;BME280;60508;42.622;25.416;2023-03-18T08:58:34;97259.38;;;7.63;32.08
45078;BME280;60508;42.622;25.416;2023-03-18T09:01:01;97278.94;;;7.57;32.62
45078;BME280;60508;42.622;25.416;2023-03-18T09:03:28;97274.81;;;7.61;32.61
45078;BME280;60508;42.622;25.416;2023-03-18T09:05:55;97272.09;;;7.74;32.40
45078;BME280;60508;42.622;25.416;2023-03-18T09:08:22;97259.34;;;7.70;32.83
45078;BME280;60508;42.622;25.416;2023-03-18T09:10:52;97276.41;;;7.75;33.10
45078;BME280;60508;42.622;25.416;2023-03-18T09:13:21;97274.75;;;7.74;33.02
45078;BME280;60508;42.622;25.416;2023-03-18T09:15:48;97279.31;;;7.60;33.40
45078;BME280;60508;42.622;25.416;2023-03-18T09:18:16;97272.47;;;7.78;33.50
45078;BME280;60508;42.622;25.416;2023-03-18T09:20:44;97279.53;;;8.04;33.08
45078;BME280;60508;42.622;25.416;2023-03-18T09:23:12;97273.91;;;8.19;33.05
45078;BME280;60508;42.622;25.416;2023-03-18T09:25:39;97280.19;;;8.31;33.32
45078;BME280;60508;42.622;25.416;2023-03-18T09:28:07;97277.88;;;8.41;33.57
45078;BME280;60508;42.622;25.416;2023-03-18T09:30:33;97283.78;;;8.50;32.82
45078;BME280;60508;42.622;25.416;2023-03-18T09:32:59;97282.50;;;8.59;32.07
45078;BME280;60508;42.622;25.416;2023-03-18T09:35:26;97295.06;;;8.84;31.64
45078;BME280;60508;42.622;25.416;2023-03-18T09:37:54;97287.59;;;9.11;31.40
45078;BME280;60508;42.622;25.416;2023-03-18T09:40:28;97288.09;;;9.02;31.24
45078;BME280;60508;42.622;25.416;2023-03-18T09:46:08;97284.91;;;8.68;31.71
45078;BME280;60508;42.622;25.416;2023-03-18T09:48:51;97286.31;;;8.45;31.38
45078;BME280;60508;42.622;25.416;2023-03-18T09:54:19;97285.34;;;8.65;32.06
45078;BME280;60508;42.622;25.416;2023-03-18T09:56:50;97279.97;;;8.65;31.88
45078;BME280;60508;42.622;25.416;2023-03-18T09:59:28;97298.09;;;8.69;32.41
45078;BME280;60508;42.622;25.416;2023-03-18T10:01:56;97300.38;;;8.66;32.40
45078;BME280;60508;42.622;25.416;2023-03-18T10:04:31;97301.09;;;8.54;33.60
45078;BME280;60508;42.622;25.416;2023-03-18T10:07:04;97295.53;;;8.49;34.12
45078;BME280;60508;42.622;25.416;2023-03-18T10:09:41;97294.28;;;8.52;34.43
45078;BME280;60508;42.622;25.416;2023-03-18T10:12:15;97294.09;;;8.79;33.92
45078;BME280;60508;42.622;25.416;2023-03-18T10:14:48;97287.75;;;8.73;34.81
45078;BME280;60508;42.622;25.416;2023-03-18T10:17:22;97288.28;;;8.82;34.30
45078;BME280;60508;42.622;25.416;2023-03-18T10:19:56;97289.34;;;8.99;33.13
45078;BME280;60508;42.622;25.416;2023-03-18T10:22:49;97278.78;;;9.04;33.25
45078;BME280;60508;42.622;25.416;2023-03-18T10:25:35;97279.25;;;9.20;33.16
45078;BME280;60508;42.622;25.416;2023-03-18T10:31:16;97268.56;;;9.38;33.59
45078;BME280;60508;42.622;25.416;2023-03-18T10:33:56;97260.41;;;9.26;33.13
45078;BME280;60508;42.622;25.416;2023-03-18T10:38:56;97263.59;;;10.02;33.73
45078;BME280;60508;42.622;25.416;2023-03-18T10:41:35;97256.78;;;10.18;32.28
45078;BME280;60508;42.622;25.416;2023-03-18T10:44:30;97259.84;;;10.88;31.12
45078;BME280;60508;42.622;25.416;2023-03-18T10:49:47;97235.75;;;12.27;29.45
45078;BME280;60508;42.622;25.416;2023-03-18T10:54:52;97234.97;;;12.43;30.19
45078;BME280;60508;42.622;25.416;2023-03-18T10:57:19;97226.72;;;12.33;29.98
45078;BME280;60508;42.622;25.416;2023-03-18T10:59:48;97227.91;;;13.10;29.06
45078;BME280;60508;42.622;25.416;2023-03-18T11:02:29;97229.91;;;13.81;28.01
45078;BME280;60508;42.622;25.416;2023-03-18T11:08:07;97231.75;;;16.11;24.75
45078;BME280;60508;42.622;25.416;2023-03-18T11:10:36;97232.63;;;16.63;23.94
45078;BME280;60508;42.622;25.416;2023-03-18T11:13:04;97226.44;;;18.29;22.05
45078;BME280;60508;42.622;25.416;2023-03-18T11:15:38;97230.97;;;17.94;22.11
45078;BME280;60508;42.622;25.416;2023-03-18T11:18:14;97229.91;;;19.57;21.02
45078;BME280;60508;42.622;25.416;2023-03-18T11:20:43;97207.50;;;20.79;19.36
45078;BME280;60508;42.622;25.416;2023-03-18T11:23:29;97221.59;;;22.39;17.88
45078;BME280;60508;42.622;25.416;2023-03-18T11:26:26;97220.59;;;25.40;16.09
45078;BME280;60508;42.622;25.416;2023-03-18T11:28:57;97219.84;;;27.29;13.29
45078;BME280;60508;42.622;25.416;2023-03-18T11:31:24;97217.47;;;27.90;13.24
45078;BME280;60508;42.622;25.416;2023-03-18T11:33:56;97227.81;;;27.43;13.23
45078;BME280;60508;42.622;25.416;2023-03-18T11:36:23;97228.50;;;28.27;12.71
45078;BME280;60508;42.622;25.416;2023-03-18T11:38:57;97219.28;;;28.75;11.63
45078;BME280;60508;42.622;25.416;2023-03-18T11:41:26;97219.78;;;28.12;12.31
45078;BME280;60508;42.622;25.416;2023-03-18T11:46:29;97203.00;;;30.14;11.38
45078;BME280;60508;42.622;25.416;2023-03-18T11:48:57;97206.81;;;31.96;10.50
45078;BME280;60508;42.622;25.416;2023-03-18T11:59:56;97194.72;;;31.11;10.11
45078;BME280;60508;42.622;25.416;2023-03-18T12:05:15;97186.66;;;29.57;11.36
45078;BME280;60508;42.622;25.416;2023-03-18T12:10:33;97182.66;;;31.73;9.62
45078;BME280;60508;42.622;25.416;2023-03-18T12:13:15;97177.19;;;31.54;9.85
45078;BME280;60508;42.622;25.416;2023-03-18T12:27:50;97167.13;;;28.90;11.37
45078;BME280;60508;42.622;25.416;2023-03-18T12:30:17;97165.25;;;27.60;11.84
45078;BME280;60508;42.622;25.416;2023-03-18T12:36:08;97168.00;;;27.84;11.58
45078;BME280;60508;42.622;25.416;2023-03-18T12:47:32;97168.38;;;31.02;9.78
45078;BME280;60508;42.622;25.416;2023-03-18T12:50:01;97153.69;;;28.19;11.21
45078;BME280;60508;42.622;25.416;2023-03-18T12:53:38;97160.41;;;29.19;11.43
45078;BME280;60508;42.622;25.416;2023-03-18T12:55:42;97159.41;;;28.67;11.17
45078;BME280;60508;42.622;25.416;2023-03-18T12:58:15;97148.56;;;29.06;11.08
45078;BME280;60508;42.622;25.416;2023-03-18T13:00:49;97158.63;;;28.54;11.23
45078;BME280;60508;42.622;25.416;2023-03-18T13:03:39;97156.56;;;27.45;12.32
45078;BME280;60508;42.622;25.416;2023-03-18T13:14:20;97149.44;;;31.30;10.08
45078;BME280;60508;42.622;25.416;2023-03-18T13:16:49;97153.72;;;33.40;8.94
45078;BME280;60508;42.622;25.416;2023-03-18T13:19:15;97160.81;;;33.30;8.84
45078;BME280;60508;42.622;25.416;2023-03-18T13:21:47;97149.63;;;31.18;10.18
45078;BME280;60508;42.622;25.416;2023-03-18T13:24:28;97161.09;;;31.17;9.96
45078;BME280;60508;42.622;25.416;2023-03-18T13:30:05;97153.63;;;30.19;10.50
45078;BME280;60508;42.622;25.416;2023-03-18T13:33:03;97147.84;;;29.73;10.86
45078;BME280;60508;42.622;25.416;2023-03-18T13:35:54;97144.81;;;28.54;11.54
45078;BME280;60508;42.622;25.416;2023-03-18T13:38:51;97139.88;;;28.76;11.48
45078;BME280;60508;42.622;25.416;2023-03-18T13:44:20;97136.78;;;30.09;10.69
45078;BME280;60508;42.622;25.416;2023-03-18T13:47:00;97135.50;;;29.35;11.09
45078;BME280;60508;42.622;25.416;2023-03-18T13:49:29;97136.47;;;29.27;11.14
45078;BME280;60508;42.622;25.416;2023-03-18T13:51:57;97136.44;;;28.95;11.46
45078;BME280;60508;42.622;25.416;2023-03-18T13:54:32;97130.13;;;28.38;11.75
45078;BME280;60508;42.622;25.416;2023-03-18T13:57:29;97145.38;;;27.66;12.03
45078;BME280;60508;42.622;25.416;2023-03-18T14:00:29;97141.31;;;27.88;12.03
45078;BME280;60508;42.622;25.416;2023-03-18T14:05:45;97128.31;;;29.50;11.14
45078;BME280;60508;42.622;25.416;2023-03-18T14:13:59;97141.19;;;24.74;14.46
45078;BME280;60508;42.622;25.416;2023-03-18T14:16:29;97131.53;;;27.17;12.95
45078;BME280;60508;42.622;25.416;2023-03-18T14:19:18;97127.66;;;26.39;13.29
45078;BME280;60508;42.622;25.416;2023-03-18T14:21:51;97136.19;;;24.76;14.38
45078;BME280;60508;42.622;25.416;2023-03-18T14:27:08;97145.06;;;25.20;14.03
45078;BME280;60508;42.622;25.416;2023-03-18T14:29:42;97149.25;;;25.65;13.94
45078;BME280;60508;42.622;25.416;2023-03-18T14:34:55;97147.31;;;27.17;12.50
45078;BME280;60508;42.622;25.416;2023-03-18T14:40:00;97156.22;;;25.24;13.72
45078;BME280;60508;42.622;25.416;2023-03-18T14:42:35;97145.47;;;25.01;14.17
45078;BME280;60508;42.622;25.416;2023-03-18T14:45:18;97144.81;;;25.51;14.20
45078;BME280;60508;42.622;25.416;2023-03-18T14:47:54;97138.56;;;24.86;14.62
45078;BME280;60508;42.622;25.416;2023-03-18T14:55:36;97134.38;;;24.89;14.45
45078;BME280;60508;42.622;25.416;2023-03-18T14:58:03;97134.59;;;24.66;14.69